createdAt,value
2023-05-09T00:00:55.352Z,99.90
2023-05-09T00:03:23.404Z,99.90
2023-05-09T00:05:51.584Z,99.90
2023-05-09T00:08:19.548Z,99.90
2023-05-09T00:10:47.504Z,99.90
2023-05-09T00:13:15.600Z,99.90
2023-05-09T00:15:46.729Z,99.90
2023-05-09T00:18:15.276Z,99.90
2023-05-09T00:20:44.414Z,99.90
2023-05-09T00:23:12.452Z,99.90
2023-05-09T00:25:40.419Z,99.90
2023-05-09T00:28:08.356Z,99.90
2023-05-09T00:30:36.757Z,99.90
2023-05-09T00:33:06.244Z,99.90
2023-05-09T00:35:34.896Z,99.90
2023-05-09T00:38:02.911Z,99.90
2023-05-09T00:40:30.895Z,99.90
2023-05-09T00:43:00.177Z,99.90
2023-05-09T00:45:28.207Z,99.90
2023-05-09T00:47:56.981Z,99.90
2023-05-09T00:50:26.799Z,99.90
2023-05-09T00:52:54.858Z,99.90
2023-05-09T00:55:23.315Z,99.90
2023-05-09T00:57:51.321Z,99.90
2023-05-09T01:00:19.756Z,99.90
2023-05-09T01:02:53.001Z,99.90
2023-05-09T01:05:22.201Z,99.90
2023-05-09T01:08:01.261Z,99.90
2023-05-09T01:10:36.340Z,99.90
2023-05-09T01:13:10.891Z,99.90
2023-05-09T01:15:44.343Z,99.90
2023-05-09T01:18:18.244Z,99.90
2023-05-09T01:20:50.223Z,99.90
2023-05-09T01:23:44.195Z,99.90
2023-05-09T01:26:20.146Z,99.90
2023-05-09T01:29:14.001Z,99.90
2023-05-09T01:31:45.746Z,99.90
2023-05-09T01:34:16.156Z,99.90
2023-05-09T01:36:45.284Z,99.90
2023-05-09T01:39:14.653Z,99.90
2023-05-09T01:41:42.693Z,99.90
2023-05-09T01:44:14.860Z,99.90
2023-05-09T01:46:44.700Z,99.90
2023-05-09T01:49:13.630Z,99.90
2023-05-09T01:51:44.189Z,99.90
2023-05-09T01:54:13.607Z,99.90
2023-05-09T01:56:44.198Z,99.90
2023-05-09T01:59:16.477Z,99.90
2023-05-09T02:01:44.889Z,99.90
2023-05-09T02:04:14.530Z,99.90
2023-05-09T02:06:44.603Z,99.90
2023-05-09T02:09:13.352Z,99.90
2023-05-09T02:11:41.384Z,99.90
2023-05-09T02:14:09.430Z,99.90
2023-05-09T02:16:40.139Z,99.90
2023-05-09T02:19:08.399Z,99.90
2023-05-09T02:21:36.722Z,99.90
2023-05-09T02:24:05.525Z,99.90
2023-05-09T02:26:34.323Z,99.90
2023-05-09T02:29:04.373Z,99.90
2023-05-09T02:31:33.025Z,99.90
2023-05-09T02:34:04.146Z,99.90
2023-05-09T02:36:32.872Z,99.90
2023-05-09T02:39:02.189Z,99.90
2023-05-09T02:41:31.137Z,99.90
2023-05-09T02:43:59.092Z,99.90
2023-05-09T02:46:27.693Z,99.90
2023-05-09T02:48:55.918Z,99.90
2023-05-09T02:51:25.292Z,99.90
2023-05-09T02:53:53.274Z,99.90
2023-05-09T02:56:21.413Z,99.90
2023-05-09T02:58:51.492Z,99.90
2023-05-09T03:01:19.711Z,99.90
2023-05-09T03:03:47.947Z,99.90
2023-05-09T03:06:16.093Z,99.90
2023-05-09T03:08:45.432Z,99.90
2023-05-09T03:11:13.427Z,99.90
2023-05-09T03:13:41.370Z,99.90
2023-05-09T03:16:09.603Z,99.90
2023-05-09T03:18:37.641Z,99.90
2023-05-09T03:21:05.979Z,99.90
2023-05-09T03:23:34.078Z,99.90
2023-05-09T03:26:03.505Z,99.90
2023-05-09T03:28:31.549Z,99.90
2023-05-09T03:30:59.550Z,99.90
2023-05-09T03:33:27.803Z,99.90
2023-05-09T03:35:55.749Z,99.90
2023-05-09T03:38:24.690Z,99.90
2023-05-09T03:40:54.935Z,99.90
2023-05-09T03:43:24.263Z,99.90
2023-05-09T03:45:52.244Z,99.90
2023-05-09T03:48:20.264Z,99.90
2023-05-09T03:50:48.250Z,99.90
2023-05-09T03:53:16.236Z,99.90
2023-05-09T03:55:44.252Z,99.90
2023-05-09T03:58:12.956Z,99.90
2023-05-09T04:00:42.742Z,99.90
2023-05-09T04:03:12.820Z,99.90
2023-05-09T04:05:41.259Z,99.90
2023-05-09T04:08:09.405Z,99.90
2023-05-09T04:10:37.536Z,99.90
2023-05-09T04:13:05.559Z,99.90
2023-05-09T04:15:33.639Z,99.90
2023-05-09T04:18:03.373Z,99.90
2023-05-09T04:20:31.929Z,99.90
2023-05-09T04:23:00.110Z,99.90
2023-05-09T04:25:29.459Z,99.90
2023-05-09T04:27:57.795Z,99.90
2023-05-09T04:30:27.156Z,99.90
2023-05-09T04:32:55.704Z,99.90
2023-05-09T04:35:25.070Z,99.90
2023-05-09T04:37:53.279Z,99.90
2023-05-09T04:40:21.657Z,99.90
2023-05-09T04:42:49.836Z,99.90
2023-05-09T04:45:18.001Z,99.90
2023-05-09T04:47:46.034Z,99.90
2023-05-09T04:50:14.378Z,99.90
2023-05-09T04:52:43.697Z,99.90
2023-05-09T04:55:11.966Z,99.90
2023-05-09T04:57:39.964Z,99.90
2023-05-09T05:00:11.387Z,99.90
2023-05-09T05:02:39.845Z,99.90
2023-05-09T05:05:17.936Z,99.90
2023-05-09T05:07:47.615Z,99.90
2023-05-09T05:10:15.621Z,99.90
2023-05-09T05:12:43.689Z,99.90
2023-05-09T05:15:12.952Z,99.90
2023-05-09T05:17:41.146Z,99.90
2023-05-09T05:20:10.725Z,99.90
2023-05-09T05:22:38.775Z,99.90
2023-05-09T05:25:09.417Z,99.90
2023-05-09T05:27:37.489Z,99.90
2023-05-09T05:30:06.426Z,99.90
2023-05-09T05:32:34.433Z,99.90
2023-05-09T05:35:03.771Z,99.90
2023-05-09T05:37:31.826Z,99.90
2023-05-09T05:39:59.819Z,99.90
2023-05-09T05:42:29.151Z,99.90
2023-05-09T05:44:57.114Z,99.90
2023-05-09T05:47:25.156Z,99.90
2023-05-09T05:49:53.683Z,99.90
2023-05-09T05:52:21.604Z,99.90
2023-05-09T05:54:49.774Z,99.90
2023-05-09T05:57:17.749Z,99.90
2023-05-09T05:59:47.984Z,99.90
2023-05-09T06:02:15.993Z,99.90
2023-05-09T06:04:44.206Z,99.90
2023-05-09T06:07:12.860Z,99.90
2023-05-09T06:09:40.863Z,99.90
2023-05-09T06:12:11.088Z,99.90
2023-05-09T06:14:39.166Z,99.90
2023-05-09T06:17:09.008Z,99.90
2023-05-09T06:19:37.430Z,99.90
2023-05-09T06:22:05.509Z,99.90
2023-05-09T06:24:36.109Z,99.90
2023-05-09T06:27:04.723Z,99.90
2023-05-09T06:29:32.690Z,99.90
2023-05-09T06:32:00.788Z,99.90
2023-05-09T06:34:30.141Z,99.90
2023-05-09T06:36:58.219Z,99.90
2023-05-09T06:39:26.183Z,99.90
2023-05-09T06:41:55.328Z,99.90
2023-05-09T06:44:23.322Z,99.90
2023-05-09T06:46:51.478Z,99.90
2023-05-09T06:49:19.484Z,99.90
2023-05-09T06:51:48.852Z,99.90
2023-05-09T06:54:17.631Z,99.90
2023-05-09T06:56:45.788Z,99.90
2023-05-09T06:59:13.762Z,99.90
2023-05-09T07:01:41.762Z,99.90
2023-05-09T07:04:09.803Z,99.90
2023-05-09T07:06:37.842Z,99.90
2023-05-09T07:09:07.159Z,99.90
2023-05-09T07:11:38.312Z,99.90
2023-05-09T07:14:06.303Z,99.90
2023-05-09T07:16:36.696Z,99.90
2023-05-09T07:19:05.904Z,99.90
2023-05-09T07:21:34.414Z,99.90
2023-05-09T07:24:02.567Z,99.90
2023-05-09T07:26:32.158Z,99.90
2023-05-09T07:29:00.149Z,99.90
2023-05-09T07:31:28.127Z,99.90
2023-05-09T07:33:56.246Z,99.90
2023-05-09T07:36:24.209Z,99.90
2023-05-09T07:38:53.542Z,99.90
2023-05-09T07:41:22.474Z,99.90
2023-05-09T07:43:51.814Z,99.90
2023-05-09T07:46:19.875Z,99.90
2023-05-09T07:48:47.967Z,99.90
2023-05-09T07:51:15.980Z,99.90
2023-05-09T07:53:44.230Z,99.90
2023-05-09T07:56:15.459Z,99.90
2023-05-09T07:58:43.402Z,99.90
2023-05-09T08:01:12.751Z,99.90
2023-05-09T08:03:40.874Z,99.90
2023-05-09T08:06:09.045Z,99.90
2023-05-09T08:08:38.791Z,99.90
2023-05-09T08:11:07.247Z,99.90
2023-05-09T08:13:35.196Z,99.90
2023-05-09T08:16:03.302Z,99.90
2023-05-09T08:18:32.822Z,99.90
2023-05-09T08:21:01.065Z,99.90
2023-05-09T08:23:30.410Z,99.90
2023-05-09T08:25:59.159Z,99.90
2023-05-09T08:28:28.809Z,99.90
2023-05-09T08:30:57.894Z,99.90
2023-05-09T08:33:26.085Z,99.90
2023-05-09T08:35:56.479Z,99.90
2023-05-09T08:38:25.298Z,99.90
2023-05-09T08:40:53.330Z,99.90
2023-05-09T08:43:23.265Z,99.90
2023-05-09T08:45:55.321Z,99.90
2023-05-09T08:48:24.273Z,99.90
2023-05-09T08:50:52.753Z,99.90
2023-05-09T08:53:22.714Z,99.70
2023-05-09T08:55:51.095Z,99.80
2023-05-09T08:58:22.852Z,98.10
2023-05-09T09:00:51.532Z,99.40
2023-05-09T09:03:19.577Z,98.20
2023-05-09T09:05:49.282Z,99.20
2023-05-09T09:08:18.873Z,99.50
2023-05-09T09:10:48.471Z,98.90
2023-05-09T09:13:17.868Z,98.10
2023-05-09T09:15:48.014Z,97.60
2023-05-09T09:18:22.066Z,97.40
2023-05-09T09:20:53.049Z,97.40
2023-05-09T09:23:21.841Z,97.70
2023-05-09T09:25:59.894Z,98.40
2023-05-09T09:28:28.265Z,98.50
2023-05-09T09:30:56.273Z,98.20
2023-05-09T09:33:25.229Z,98.10
2023-05-09T09:35:55.627Z,98.10
2023-05-09T09:38:24.818Z,97.60
2023-05-09T09:40:57.636Z,97.60
2023-05-09T09:43:29.611Z,97.20
2023-05-09T09:45:58.266Z,96.80
2023-05-09T09:48:26.981Z,96.60
2023-05-09T09:50:56.731Z,96.90
2023-05-09T09:53:30.355Z,95.80
2023-05-09T09:56:00.185Z,95.10
2023-05-09T09:58:28.160Z,94.40
2023-05-09T10:01:08.944Z,94.30
2023-05-09T10:03:38.380Z,94.30
2023-05-09T10:06:06.726Z,93.40
2023-05-09T10:08:34.711Z,93.30
2023-05-09T10:11:04.154Z,93.50
2023-05-09T10:13:32.532Z,94.10
2023-05-09T10:16:01.693Z,94.60
2023-05-09T10:18:31.265Z,95.00
2023-05-09T10:21:05.134Z,95.00
2023-05-09T10:23:38.103Z,95.00
2023-05-09T10:26:17.636Z,95.30
2023-05-09T10:28:50.919Z,95.80
2023-05-09T10:31:26.349Z,96.40
2023-05-09T10:33:55.989Z,95.80
2023-05-09T10:36:25.077Z,94.80
2023-05-09T10:38:55.353Z,95.30
2023-05-09T10:41:25.697Z,95.30
2023-05-09T10:43:56.565Z,95.10
2023-05-09T10:46:25.164Z,94.90
2023-05-09T10:48:53.598Z,94.60
2023-05-09T10:51:22.266Z,94.40
2023-05-09T10:53:52.238Z,94.60
2023-05-09T10:56:31.888Z,94.80
2023-05-09T10:59:00.167Z,95.00
2023-05-09T11:01:35.019Z,95.30
2023-05-09T11:04:09.850Z,95.70
2023-05-09T11:06:51.384Z,95.40
2023-05-09T11:09:32.769Z,95.30
2023-05-09T11:12:11.625Z,95.20
2023-05-09T11:14:41.882Z,93.20
2023-05-09T11:17:12.241Z,92.90
2023-05-09T11:19:59.914Z,92.90
2023-05-09T11:22:29.296Z,93.30
2023-05-09T11:25:07.633Z,94.10
2023-05-09T11:27:43.566Z,93.70
2023-05-09T11:30:15.462Z,93.10
2023-05-09T11:32:46.230Z,91.10
2023-05-09T11:35:16.270Z,91.60
2023-05-09T11:37:49.881Z,91.70
2023-05-09T11:40:19.170Z,91.40
2023-05-09T11:42:50.061Z,91.50
2023-05-09T11:45:18.874Z,91.20
2023-05-09T11:47:47.541Z,90.10
2023-05-09T11:50:17.184Z,90.70
2023-05-09T11:52:45.184Z,91.80
2023-05-09T11:55:14.845Z,92.80
2023-05-09T11:57:45.100Z,92.50
2023-05-09T12:00:17.506Z,93.20
2023-05-09T12:02:46.837Z,93.50
2023-05-09T12:05:16.890Z,94.10
2023-05-09T12:07:45.402Z,93.60
2023-05-09T12:10:15.632Z,93.60
2023-05-09T12:12:45.305Z,93.90
2023-05-09T12:15:15.827Z,93.40
2023-05-09T12:17:45.109Z,93.60
2023-05-09T12:20:13.806Z,93.20
2023-05-09T12:22:44.709Z,92.90
2023-05-09T12:25:13.096Z,92.70
2023-05-09T12:27:42.097Z,92.40
2023-05-09T12:30:12.052Z,92.50
2023-05-09T12:32:42.718Z,92.60
2023-05-09T12:35:11.553Z,92.50
2023-05-09T12:37:39.693Z,91.40
2023-05-09T12:40:12.548Z,91.20
2023-05-09T12:42:44.239Z,91.00
2023-05-09T12:45:13.173Z,91.80
2023-05-09T12:47:43.165Z,92.10
2023-05-09T12:50:13.250Z,90.60
2023-05-09T12:52:58.525Z,88.40
2023-05-09T12:55:39.781Z,86.70
2023-05-09T12:58:13.620Z,87.00
2023-05-09T13:00:45.766Z,86.40
2023-05-09T13:03:27.437Z,87.00
2023-05-09T13:05:56.184Z,87.20
2023-05-09T13:08:24.249Z,87.70
2023-05-09T13:10:57.822Z,89.00
2023-05-09T13:13:32.734Z,88.30
2023-05-09T13:16:00.960Z,88.20
2023-05-09T13:18:30.259Z,87.30
2023-05-09T13:20:58.435Z,84.60
2023-05-09T13:23:26.570Z,85.20
2023-05-09T13:25:54.539Z,85.10
2023-05-09T13:28:22.560Z,84.10
2023-05-09T13:30:50.561Z,83.20
2023-05-09T13:33:25.793Z,82.20
2023-05-09T13:35:55.636Z,86.10
2023-05-09T13:38:23.618Z,85.40
2023-05-09T13:40:51.598Z,85.10
2023-05-09T13:43:19.578Z,83.90
2023-05-09T13:45:47.610Z,83.60
2023-05-09T13:48:15.645Z,83.10
2023-05-09T13:50:43.639Z,83.50
2023-05-09T13:53:13.063Z,82.90
2023-05-09T13:55:41.035Z,82.40
2023-05-09T13:58:09.022Z,82.00
2023-05-09T14:00:37.051Z,81.80
2023-05-09T14:03:05.499Z,82.60
2023-05-09T14:05:33.530Z,83.10
2023-05-09T14:08:02.311Z,82.50
2023-05-09T14:10:31.711Z,81.30
2023-05-09T14:12:59.683Z,80.30
2023-05-09T14:15:27.676Z,81.10
2023-05-09T14:17:55.767Z,80.70
2023-05-09T14:20:23.968Z,81.10
2023-05-09T14:22:51.996Z,80.60
2023-05-09T14:25:20.223Z,78.10
2023-05-09T14:27:49.538Z,77.80
2023-05-09T14:30:17.732Z,77.60
2023-05-09T14:32:45.842Z,78.90
2023-05-09T14:35:13.806Z,79.30
2023-05-09T14:37:41.912Z,78.80
2023-05-09T14:40:11.061Z,80.00
2023-05-09T14:42:39.051Z,80.60
2023-05-09T14:45:12.034Z,83.00
2023-05-09T14:47:41.289Z,84.70
2023-05-09T14:50:11.464Z,83.60
2023-05-09T14:52:39.423Z,83.00
2023-05-09T14:55:07.713Z,82.60
2023-05-09T14:57:35.723Z,84.00
2023-05-09T15:00:16.556Z,84.20
2023-05-09T15:02:49.488Z,82.50
2023-05-09T15:05:17.724Z,82.10
2023-05-09T15:07:45.720Z,80.20
2023-05-09T15:10:13.978Z,80.00
2023-05-09T15:12:42.186Z,79.60
2023-05-09T15:15:17.805Z,79.00
2023-05-09T15:17:46.329Z,78.70
2023-05-09T15:20:16.487Z,79.50
2023-05-09T15:22:45.357Z,79.60
2023-05-09T15:25:13.373Z,81.90
2023-05-09T15:27:41.360Z,83.70
2023-05-09T15:30:10.600Z,85.60
2023-05-09T15:32:41.273Z,87.60
2023-05-09T15:35:10.234Z,90.10
2023-05-09T15:37:39.626Z,90.10
2023-05-09T15:40:10.613Z,91.00
2023-05-09T15:42:39.779Z,92.40
2023-05-09T15:45:09.065Z,92.70
2023-05-09T15:47:37.170Z,92.40
2023-05-09T15:50:05.532Z,93.50
2023-05-09T15:52:33.496Z,94.50
2023-05-09T15:55:02.934Z,94.60
2023-05-09T15:57:30.904Z,94.00
2023-05-09T15:59:58.862Z,94.40
2023-05-09T16:02:28.389Z,93.50
2023-05-09T16:04:56.504Z,93.90
2023-05-09T16:07:24.506Z,94.10
2023-05-09T16:09:52.504Z,94.60
2023-05-09T16:12:21.810Z,94.70
2023-05-09T16:14:49.761Z,94.90
2023-05-09T16:17:17.803Z,95.00
2023-05-09T16:19:45.768Z,95.70
2023-05-09T16:22:14.040Z,95.90
2023-05-09T16:24:41.974Z,96.00
2023-05-09T16:27:09.987Z,95.80
2023-05-09T16:29:39.306Z,96.20
2023-05-09T16:32:08.548Z,96.60
2023-05-09T16:34:37.182Z,96.90
2023-05-09T16:37:05.363Z,97.70
2023-05-09T16:39:33.419Z,97.40
2023-05-09T16:42:01.412Z,97.50
2023-05-09T16:44:29.381Z,97.80
2023-05-09T16:46:58.702Z,98.00
2023-05-09T16:49:26.753Z,98.30
2023-05-09T16:51:54.727Z,98.50
2023-05-09T16:54:23.304Z,98.30
2023-05-09T16:56:51.643Z,98.50
2023-05-09T16:59:20.174Z,98.70
2023-05-09T17:01:48.644Z,98.90
2023-05-09T17:04:18.041Z,99.00
2023-05-09T17:06:46.042Z,99.20
2023-05-09T17:09:13.986Z,99.30
2023-05-09T17:11:41.984Z,99.50
2023-05-09T17:14:09.941Z,99.60
2023-05-09T17:16:38.211Z,99.60
2023-05-09T17:19:06.471Z,99.80
2023-05-09T17:21:35.882Z,99.90
2023-05-09T17:24:03.818Z,99.90
2023-05-09T17:26:31.872Z,99.90
2023-05-09T17:28:59.871Z,99.90
2023-05-09T17:31:27.880Z,99.90
2023-05-09T17:33:56.008Z,99.90
2023-05-09T17:36:24.103Z,99.90
2023-05-09T17:38:53.426Z,99.90
2023-05-09T17:41:21.988Z,99.90
2023-05-09T17:43:51.929Z,99.90
2023-05-09T17:46:20.036Z,99.90
2023-05-09T17:48:48.287Z,99.90
2023-05-09T17:51:16.859Z,99.90
2023-05-09T17:53:44.962Z,99.90
2023-05-09T17:56:14.324Z,99.90
2023-05-09T17:58:42.345Z,99.90
2023-05-09T18:01:10.767Z,99.90
2023-05-09T18:03:39.337Z,99.90
2023-05-09T18:06:07.412Z,99.90
2023-05-09T18:08:36.658Z,99.90
2023-05-09T18:11:04.839Z,99.90
2023-05-09T18:13:34.507Z,99.90
2023-05-09T18:16:02.782Z,99.90
2023-05-09T18:18:32.432Z,99.90
2023-05-09T18:21:00.655Z,99.90
2023-05-09T18:23:28.848Z,99.90
2023-05-09T18:25:56.951Z,99.90
2023-05-09T18:28:25.681Z,99.90
2023-05-09T18:30:55.875Z,99.90
2023-05-09T18:33:24.527Z,99.90
2023-05-09T18:35:53.411Z,99.90
2023-05-09T18:38:21.450Z,99.90
2023-05-09T18:40:51.718Z,99.90
2023-05-09T18:43:20.838Z,99.90
2023-05-09T18:45:49.167Z,99.90
2023-05-09T18:48:18.852Z,99.90
2023-05-09T18:50:47.197Z,99.90
2023-05-09T18:53:15.131Z,99.90
2023-05-09T18:55:43.438Z,99.90
2023-05-09T18:58:11.417Z,99.90
2023-05-09T19:00:40.084Z,99.90
2023-05-09T19:03:08.145Z,99.90
2023-05-09T19:05:37.518Z,99.90
2023-05-09T19:08:05.993Z,99.90
2023-05-09T19:10:34.276Z,99.90
2023-05-09T19:13:02.326Z,99.90
2023-05-09T19:15:30.584Z,99.90
2023-05-09T19:17:58.757Z,99.90
2023-05-09T19:20:26.804Z,99.90
2023-05-09T19:22:56.136Z,99.90
2023-05-09T19:25:24.344Z,99.90
2023-05-09T19:27:53.006Z,99.90
2023-05-09T19:30:22.126Z,99.90
2023-05-09T19:32:50.112Z,99.90
2023-05-09T19:35:18.316Z,99.90
2023-05-09T19:37:46.273Z,99.90
2023-05-09T19:40:16.054Z,99.90
2023-05-09T19:42:44.301Z,99.90
2023-05-09T19:45:13.183Z,99.90
2023-05-09T19:47:41.588Z,99.90
2023-05-09T19:50:11.684Z,99.90
2023-05-09T19:52:39.830Z,99.90
2023-05-09T19:55:08.692Z,99.90
2023-05-09T19:57:38.022Z,99.90
2023-05-09T20:00:07.176Z,99.90
2023-05-09T20:02:35.371Z,99.90
2023-05-09T20:05:03.678Z,99.90
2023-05-09T20:07:31.680Z,99.90
2023-05-09T20:09:59.753Z,99.90
2023-05-09T20:12:30.090Z,99.90
2023-05-09T20:14:59.834Z,99.90
2023-05-09T20:17:27.894Z,99.90
2023-05-09T20:19:56.435Z,99.90
2023-05-09T20:22:24.409Z,99.90
2023-05-09T20:24:52.436Z,99.90
2023-05-09T20:27:20.683Z,99.90
2023-05-09T20:29:48.661Z,99.90
2023-05-09T20:32:18.055Z,99.90
2023-05-09T20:34:46.117Z,99.90
2023-05-09T20:37:14.214Z,99.90
2023-05-09T20:39:42.182Z,99.90
2023-05-09T20:42:10.307Z,99.90
2023-05-09T20:44:39.504Z,99.90
2023-05-09T20:47:07.526Z,99.90
2023-05-09T20:49:37.105Z,99.90
2023-05-09T20:52:05.454Z,99.90
2023-05-09T20:54:33.408Z,99.90
2023-05-09T20:57:01.440Z,99.90
2023-05-09T20:59:29.413Z,99.90
2023-05-09T21:01:57.420Z,99.90
2023-05-09T21:04:25.447Z,99.90
2023-05-09T21:06:54.869Z,99.90
2023-05-09T21:09:22.838Z,99.90
2023-05-09T21:11:50.765Z,99.90
2023-05-09T21:14:18.735Z,99.90
2023-05-09T21:16:46.924Z,99.90
2023-05-09T21:19:14.946Z,99.90
2023-05-09T21:21:42.908Z,99.90
2023-05-09T21:24:12.292Z,99.90
2023-05-09T21:26:41.144Z,99.90
2023-05-09T21:29:09.159Z,99.90
2023-05-09T21:31:37.328Z,99.90
2023-05-09T21:34:09.874Z,99.90
2023-05-09T21:36:38.582Z,99.90
2023-05-09T21:39:09.102Z,99.90
2023-05-09T21:41:39.770Z,99.90
2023-05-09T21:44:08.396Z,99.90
2023-05-09T21:46:36.713Z,99.90
2023-05-09T21:49:04.917Z,99.90
2023-05-09T21:51:33.533Z,99.90
2023-05-09T21:54:02.217Z,99.90
2023-05-09T21:56:30.254Z,99.90
2023-05-09T21:58:59.599Z,99.90
2023-05-09T22:01:27.591Z,99.90
2023-05-09T22:03:56.439Z,99.90
2023-05-09T22:06:24.684Z,99.90
2023-05-09T22:08:52.692Z,99.90
2023-05-09T22:11:21.246Z,99.90
2023-05-09T22:13:49.249Z,99.90
2023-05-09T22:16:18.695Z,99.90
2023-05-09T22:18:46.815Z,99.90
2023-05-09T22:21:14.798Z,99.90
2023-05-09T22:23:42.829Z,99.90
2023-05-09T22:26:10.904Z,99.90
2023-05-09T22:28:38.962Z,99.90
2023-05-09T22:31:07.669Z,99.90
2023-05-09T22:33:37.038Z,99.90
2023-05-09T22:36:05.814Z,99.90
2023-05-09T22:38:33.840Z,99.90
2023-05-09T22:41:01.802Z,99.90
2023-05-09T22:43:38.764Z,99.90
2023-05-09T22:46:07.545Z,99.90
2023-05-09T22:48:37.008Z,99.90
2023-05-09T22:51:05.231Z,99.90
2023-05-09T22:53:33.761Z,99.90
2023-05-09T22:56:01.896Z,99.90
2023-05-09T22:58:29.929Z,99.90
2023-05-09T23:00:57.897Z,99.90
2023-05-09T23:03:25.995Z,99.90
2023-05-09T23:05:55.391Z,99.90
2023-05-09T23:08:23.403Z,99.90
2023-05-09T23:10:51.370Z,99.90
2023-05-09T23:13:19.464Z,99.90
2023-05-09T23:15:48.208Z,99.90
2023-05-09T23:18:16.254Z,99.90
2023-05-09T23:20:44.222Z,99.90
2023-05-09T23:23:13.514Z,99.90
2023-05-09T23:25:41.923Z,99.90
2023-05-09T23:28:09.858Z,99.90
2023-05-09T23:30:37.867Z,99.90
2023-05-09T23:33:05.932Z,99.90
2023-05-09T23:35:33.967Z,99.90
2023-05-09T23:38:03.905Z,99.90
2023-05-09T23:40:33.200Z,99.90
2023-05-09T23:43:01.150Z,99.90
2023-05-09T23:45:29.258Z,99.90
2023-05-09T23:47:58.231Z,99.90
2023-05-09T23:50:26.158Z,99.90
2023-05-09T23:52:54.117Z,99.90
2023-05-09T23:55:22.097Z,99.90
2023-05-09T23:57:51.399Z,99.90
